Time;durP1;ratioP1;P1;durP2;ratioP2;P2;SDS_P1;SDS_P2;PMS_P1;PMS_P2;Temp;Humidity;BMP_temperature;BMP_pressure;BME280_temperature;BME280_humidity;BME280_pressure;Samples;Min_cycle;Max_cycle;Signal;HPM_P1;HPM_P2
2021/12/01 00:00:27;;;;;;;2.25;2.05;;;6.90;99.90;;;;;;4995645;28;20895;-68
2021/12/01 00:02:57;;;;;;;2.00;1.90;;;6.90;99.90;;;;;;4995856;28;20682;-67
2021/12/01 00:05:27;;;;;;;2.22;2.13;;;7.00;99.90;;;;;;4995652;28;20724;-67
2021/12/01 00:07:55;;;;;;;3.00;2.80;;;7.00;99.90;;;;;;4995048;28;20301;-68
2021/12/01 00:10:25;;;;;;;3.47;3.03;;;6.90;99.90;;;;;;4995284;28;20226;-68
2021/12/01 00:12:55;;;;;;;2.47;2.28;;;7.00;99.90;;;;;;4995368;28;20221;-68
2021/12/01 00:15:23;;;;;;;2.22;2.08;;;6.90;99.90;;;;;;4992750;28;20226;-67
2021/12/01 00:17:51;;;;;;;2.42;2.22;;;6.90;99.90;;;;;;4994164;28;20328;-68
2021/12/01 00:20:20;;;;;;;3.47;3.25;;;6.90;99.90;;;;;;4986417;28;20301;-68
2021/12/01 00:22:49;;;;;;;2.40;2.30;;;6.90;99.90;;;;;;4983767;28;20734;-67
2021/12/01 00:25:22;;;;;;;2.47;2.28;;;6.80;99.90;;;;;;4986777;28;20269;-68
2021/12/01 00:27:51;;;;;;;2.72;2.53;;;6.80;99.90;;;;;;4991649;28;20252;-68
2021/12/01 00:30:21;;;;;;;3.13;2.40;;;6.80;99.90;;;;;;4993963;28;20280;-67
2021/12/01 00:32:49;;;;;;;2.13;1.92;;;6.80;99.90;;;;;;4986027;28;20230;-67
2021/12/01 00:35:17;;;;;;;2.25;2.05;;;6.80;99.90;;;;;;4985743;28;20317;-67
2021/12/01 00:37:45;;;;;;;2.92;2.65;;;6.80;99.90;;;;;;4985357;28;20285;-67
2021/12/01 00:40:14;;;;;;;2.28;2.17;;;6.80;99.90;;;;;;4984693;28;20221;-67
2021/12/01 00:42:42;;;;;;;3.50;2.22;;;6.80;99.90;;;;;;4978468;28;20297;-67
2021/12/01 00:45:16;;;;;;;2.10;2.00;;;6.80;99.90;;;;;;4986576;28;20226;-68
2021/12/01 00:47:47;;;;;;;2.17;2.08;;;6.70;99.90;;;;;;4994724;28;20221;-67
2021/12/01 00:50:18;;;;;;;2.42;2.22;;;6.70;99.90;;;;;;4994919;28;20210;-68
2021/12/01 00:52:46;;;;;;;2.63;2.25;;;6.70;99.90;;;;;;4994953;28;20218;-67
2021/12/01 00:55:14;;;;;;;2.60;2.30;;;6.70;99.90;;;;;;4994741;28;20225;-67
2021/12/01 00:57:42;;;;;;;2.17;1.98;;;6.70;99.90;;;;;;4994003;28;20224;-67
2021/12/01 01:00:11;;;;;;;3.13;2.83;;;6.70;99.90;;;;;;4986528;28;20289;-67
2021/12/01 01:02:40;;;;;;;3.05;2.85;;;6.60;99.90;;;;;;4984444;28;20232;-67
2021/12/01 01:05:11;;;;;;;3.30;3.10;;;6.60;99.90;;;;;;4994635;28;20313;-67
2021/12/01 01:07:39;;;;;;;2.90;2.70;;;6.60;99.90;;;;;;4994021;28;20229;-67
2021/12/01 01:10:28;;;;;;;3.00;2.80;;;6.60;99.90;;;;;;4993995;28;20198;-68
2021/12/01 01:18:39;;;;;;;2.40;2.20;;;6.60;99.90;;;;;;4993982;28;20229;-67
2021/12/01 01:21:08;;;;;;;2.67;2.47;;;6.60;99.90;;;;;;4994049;28;20194;-67
2021/12/01 01:23:36;;;;;;;2.55;2.45;;;6.60;99.90;;;;;;4994116;28;20237;-67
2021/12/01 01:26:07;;;;;;;2.38;2.28;;;6.60;99.90;;;;;;4993736;28;20206;-67
2021/12/01 01:28:35;;;;;;;3.10;2.80;;;6.60;99.90;;;;;;4993731;28;20210;-67
2021/12/01 01:31:04;;;;;;;3.85;2.70;;;6.60;99.90;;;;;;4994003;28;20226;-67
2021/12/01 01:33:33;;;;;;;3.05;2.45;;;6.60;99.90;;;;;;4993838;28;20706;-67
2021/12/01 01:36:01;;;;;;;3.03;2.65;;;6.60;99.90;;;;;;4994113;28;20198;-67
2021/12/01 01:38:32;;;;;;;1.70;1.60;;;6.60;99.90;;;;;;4990049;28;20221;-67
2021/12/01 01:41:00;;;;;;;2.17;1.63;;;6.60;99.90;;;;;;4989486;28;20233;-67
2021/12/01 01:43:28;;;;;;;1.70;1.60;;;6.60;99.90;;;;;;4993784;28;20265;-67
2021/12/01 01:45:58;;;;;;;2.88;1.88;;;6.60;99.90;;;;;;4988301;28;20714;-67
2021/12/01 01:48:30;;;;;;;1.20;1.10;;;6.50;99.90;;;;;;4989186;28;20256;-68
2021/12/01 01:51:00;;;;;;;1.00;1.00;;;6.40;99.90;;;;;;4980835;28;20256;-67
2021/12/01 01:53:30;;;;;;;2.22;1.33;;;6.40;99.90;;;;;;4981727;28;20718;-68
2021/12/01 01:56:00;;;;;;;1.77;1.33;;;6.30;99.90;;;;;;4986381;28;20198;-68
2021/12/01 01:58:30;;;;;;;2.30;0.80;;;6.30;99.90;;;;;;4989673;28;20268;-68
2021/12/01 02:01:06;;;;;;;0.80;0.80;;;6.20;99.90;;;;;;4992601;28;20225;-69
2021/12/01 02:03:38;;;;;;;1.38;0.85;;;6.20;99.90;;;;;;4982512;28;20237;-67
2021/12/01 02:06:07;;;;;;;0.70;0.70;;;6.20;99.90;;;;;;4985811;28;20229;-67
2021/12/01 02:08:40;;;;;;;1.08;0.60;;;6.10;99.90;;;;;;4981052;28;20647;-67
2021/12/01 02:11:11;;;;;;;0.80;0.80;;;6.10;99.90;;;;;;4985299;28;20256;-67
2021/12/01 02:13:40;;;;;;;1.08;0.80;;;6.10;99.90;;;;;;4983844;28;20292;-66
2021/12/01 02:16:09;;;;;;;1.42;0.80;;;6.00;99.90;;;;;;4989137;28;20297;-67
2021/12/01 02:18:38;;;;;;;0.60;0.60;;;6.00;99.90;;;;;;4981502;28;20256;-66
2021/12/01 02:21:11;;;;;;;0.70;0.60;;;6.00;99.90;;;;;;4983640;28;20647;-68
2021/12/01 02:23:41;;;;;;;0.70;0.60;;;6.00;99.90;;;;;;4981418;28;20665;-67
2021/12/01 02:26:11;;;;;;;1.27;0.60;;;6.00;99.90;;;;;;4984716;28;20233;-67
2021/12/01 02:28:40;;;;;;;1.27;0.60;;;5.90;99.90;;;;;;4991113;28;20233;-67
2021/12/01 02:31:08;;;;;;;0.65;0.65;;;5.90;99.90;;;;;;4991847;28;20280;-67
2021/12/01 02:33:36;;;;;;;1.00;0.80;;;5.90;99.90;;;;;;4981523;28;20217;-67
2021/12/01 02:36:06;;;;;;;1.35;0.40;;;5.90;99.90;;;;;;4982212;28;20671;-68
2021/12/01 02:38:35;;;;;;;0.68;0.60;;;5.90;99.90;;;;;;4988830;28;20237;-68
2021/12/01 02:41:03;;;;;;;0.65;0.60;;;5.90;99.90;;;;;;4983904;28;20280;-68
2021/12/01 02:43:31;;;;;;;0.85;0.60;;;5.90;99.90;;;;;;4982133;28;20279;-69
2021/12/01 02:45:59;;;;;;;0.70;0.50;;;5.90;99.90;;;;;;4980337;28;20326;-69
2021/12/01 02:48:27;;;;;;;0.70;0.55;;;5.80;99.90;;;;;;4986709;28;20210;-68
2021/12/01 02:50:55;;;;;;;0.60;0.57;;;5.80;99.90;;;;;;4984897;28;20640;-68
2021/12/01 02:53:25;;;;;;;0.85;0.60;;;5.80;99.90;;;;;;4982719;28;20701;-68
2021/12/01 02:55:57;;;;;;;0.70;0.60;;;5.80;99.90;;;;;;4980878;28;20226;-68
2021/12/01 02:58:26;;;;;;;0.70;0.70;;;5.70;99.90;;;;;;4989649;28;20233;-69
2021/12/01 03:00:57;;;;;;;0.60;0.60;;;5.70;99.90;;;;;;4990325;28;20229;-67
2021/12/01 03:03:26;;;;;;;0.80;0.65;;;5.70;99.90;;;;;;4976287;28;20230;-68
2021/12/01 03:05:57;;;;;;;0.60;0.60;;;5.80;99.90;;;;;;4986298;28;20206;-69
2021/12/01 03:08:25;;;;;;;1.85;0.80;;;5.70;99.90;;;;;;4983469;28;20229;-67
2021/12/01 03:10:55;;;;;;;1.15;0.85;;;5.80;99.90;;;;;;4984529;28;20284;-68
2021/12/01 03:13:25;;;;;;;0.75;0.70;;;5.70;99.90;;;;;;4982745;28;20237;-68
2021/12/01 03:15:53;;;;;;;0.75;0.60;;;5.70;99.90;;;;;;4983952;28;20245;-67
2021/12/01 03:18:22;;;;;;;1.52;0.75;;;5.70;99.90;;;;;;4979360;28;20617;-67
2021/12/01 03:20:51;;;;;;;0.77;0.77;;;5.70;99.90;;;;;;4990804;28;20233;-67
2021/12/01 03:23:20;;;;;;;1.13;1.05;;;5.70;99.90;;;;;;4986486;28;20245;-66
2021/12/01 03:25:48;;;;;;;1.05;1.00;;;5.70;99.90;;;;;;4980441;28;20209;-67
2021/12/01 03:28:18;;;;;;;0.95;0.95;;;5.70;99.90;;;;;;4987938;28;20293;-67
2021/12/01 03:30:47;;;;;;;1.17;1.08;;;5.70;99.90;;;;;;4992156;28;20293;-66
2021/12/01 03:33:18;;;;;;;1.55;1.45;;;5.70;99.90;;;;;;4991932;28;20278;-67
2021/12/01 03:35:50;;;;;;;1.30;1.20;;;5.70;99.90;;;;;;4991763;28;20693;-67
2021/12/01 03:38:19;;;;;;;2.67;1.15;;;5.70;99.90;;;;;;4991580;28;20237;-67
2021/12/01 03:40:47;;;;;;;1.30;1.20;;;5.70;99.90;;;;;;4992021;28;20285;-67
2021/12/01 03:43:16;;;;;;;1.30;1.20;;;5.70;99.90;;;;;;4991660;28;20294;-67
2021/12/01 03:45:46;;;;;;;2.08;1.88;;;5.70;99.90;;;;;;4992049;28;20252;-67
2021/12/01 03:48:13;;;;;;;2.10;1.90;;;5.70;99.90;;;;;;4991580;28;20725;-66
2021/12/01 03:50:48;;;;;;;2.35;2.15;;;5.70;99.90;;;;;;4991534;28;20305;-66
2021/12/01 03:53:17;;;;;;;2.30;2.10;;;5.70;99.90;;;;;;4991876;28;20284;-67
2021/12/01 03:55:47;;;;;;;2.20;2.10;;;5.70;99.90;;;;;;4991886;28;20205;-67
2021/12/01 03:58:16;;;;;;;2.17;2.08;;;5.70;99.90;;;;;;4991418;28;20281;-68
2021/12/01 04:00:45;;;;;;;2.15;1.90;;;5.70;99.90;;;;;;4991797;28;20277;-67
2021/12/01 04:03:13;;;;;;;3.00;2.80;;;5.70;99.90;;;;;;4991568;28;20296;-68
2021/12/01 04:05:42;;;;;;;3.03;2.17;;;5.70;99.90;;;;;;4991578;28;20194;-67
2021/12/01 04:08:10;;;;;;;3.55;2.40;;;5.70;99.90;;;;;;4991498;28;20213;-67
2021/12/01 04:10:38;;;;;;;2.15;1.92;;;5.70;99.90;;;;;;4991757;28;20698;-67
2021/12/01 04:13:06;;;;;;;2.00;1.80;;;5.70;99.90;;;;;;4991816;28;20282;-69
2021/12/01 04:15:35;;;;;;;2.03;1.92;;;5.80;99.90;;;;;;4991649;28;20249;-70
2021/12/01 04:18:03;;;;;;;2.05;1.92;;;5.80;99.90;;;;;;4991326;28;20225;-67
2021/12/01 04:20:31;;;;;;;2.40;2.22;;;5.80;99.90;;;;;;4989936;28;20289;-67
2021/12/01 04:22:59;;;;;;;2.70;2.50;;;5.80;99.90;;;;;;4972362;28;20664;-67
2021/12/01 04:25:27;;;;;;;5.75;2.60;;;5.90;99.90;;;;;;4972041;28;20352;-67
2021/12/01 04:27:56;;;;;;;2.92;2.50;;;5.90;99.90;;;;;;4981971;28;20720;-67
2021/12/01 04:30:25;;;;;;;2.42;2.22;;;5.90;99.90;;;;;;4989200;28;20289;-67
2021/12/01 04:32:56;;;;;;;2.25;2.05;;;5.90;99.90;;;;;;4982823;28;20202;-67
2021/12/01 04:35:25;;;;;;;2.60;2.40;;;5.90;99.90;;;;;;4989933;28;20245;-66
2021/12/01 04:37:54;;;;;;;2.35;2.25;;;6.00;99.90;;;;;;4984970;28;20198;-69
2021/12/01 04:40:22;;;;;;;3.35;2.20;;;6.00;99.90;;;;;;4986772;28;20233;-68
2021/12/01 04:42:51;;;;;;;2.65;2.20;;;6.00;99.90;;;;;;4989641;28;20230;-68
2021/12/01 04:45:19;;;;;;;2.40;2.03;;;6.00;99.90;;;;;;4976254;28;20790;-68
2021/12/01 04:47:50;;;;;;;2.10;2.00;;;6.00;99.90;;;;;;4979703;28;20221;-67
2021/12/01 04:50:21;;;;;;;2.08;1.88;;;6.10;99.90;;;;;;4994530;28;20882;-65
2021/12/01 04:52:51;;;;;;;2.22;2.08;;;6.10;99.90;;;;;;4994958;28;20618;-68
2021/12/01 04:55:19;;;;;;;1.85;1.65;;;6.10;99.90;;;;;;4995302;28;20292;-69
2021/12/01 04:57:48;;;;;;;2.13;2.03;;;6.10;99.90;;;;;;4994158;28;20628;-68
2021/12/01 05:00:19;;;;;;;2.10;2.00;;;6.20;99.90;;;;;;4995479;28;20557;-67
2021/12/01 05:02:47;;;;;;;2.08;1.98;;;6.20;99.90;;;;;;5002840;28;20277;-68
2021/12/01 05:05:15;;;;;;;2.10;1.90;;;6.20;99.90;;;;;;4994001;28;20717;-68
2021/12/01 05:07:44;;;;;;;2.25;2.10;;;6.20;99.90;;;;;;4994369;28;20236;-68
2021/12/01 05:10:13;;;;;;;1.60;1.50;;;6.20;99.90;;;;;;4994223;28;20225;-67
2021/12/01 05:12:41;;;;;;;2.33;1.83;;;6.20;99.90;;;;;;4994416;28;20229;-67
2021/12/01 05:15:09;;;;;;;2.80;2.60;;;6.20;99.90;;;;;;4994494;28;20218;-67
2021/12/01 05:17:37;;;;;;;2.17;2.08;;;6.20;99.90;;;;;;4994288;28;20233;-64
2021/12/01 05:20:07;;;;;;;5.35;2.35;;;6.20;99.90;;;;;;4993121;28;20222;-68
2021/12/01 05:22:35;;;;;;;2.35;2.15;;;6.20;99.90;;;;;;4989669;28;20217;-66
2021/12/01 05:25:06;;;;;;;2.60;2.40;;;6.20;99.90;;;;;;4992532;28;20324;-68
2021/12/01 05:27:34;;;;;;;2.15;2.00;;;6.20;99.90;;;;;;4992911;28;20245;-68
2021/12/01 05:30:02;;;;;;;2.58;2.00;;;6.30;99.90;;;;;;4992716;28;20230;-68
2021/12/01 05:32:31;;;;;;;2.10;2.00;;;6.20;99.90;;;;;;4992818;28;20252;-67
2021/12/01 05:34:59;;;;;;;3.05;2.42;;;6.20;99.90;;;;;;4992075;28;20253;-67
2021/12/01 05:37:27;;;;;;;3.53;2.20;;;6.20;99.90;;;;;;4986236;28;20210;-68
2021/12/01 05:39:55;;;;;;;2.50;2.33;;;6.20;99.90;;;;;;4986613;28;20245;-67
2021/12/01 05:42:24;;;;;;;2.55;2.35;;;6.20;99.90;;;;;;4987562;28;20838;-65
2021/12/01 05:44:52;;;;;;;3.25;2.95;;;6.20;99.90;;;;;;4983511;28;20252;-69
2021/12/01 05:47:20;;;;;;;3.83;2.53;;;6.20;99.90;;;;;;4987309;28;20255;-69
2021/12/01 05:49:48;;;;;;;3.22;2.90;;;6.20;99.90;;;;;;4984602;28;20256;-67
2021/12/01 05:52:17;;;;;;;6.45;5.85;;;6.20;99.90;;;;;;4979247;28;20697;-68
2021/12/01 05:54:50;;;;;;;5.60;4.53;;;6.20;99.90;;;;;;4982731;28;20248;-68
2021/12/01 05:57:18;;;;;;;3.67;3.38;;;6.20;99.90;;;;;;4987329;28;20210;-65
2021/12/01 05:59:47;;;;;;;2.95;2.70;;;6.20;99.90;;;;;;4985351;28;20293;-68
2021/12/01 06:02:15;;;;;;;3.58;2.47;;;6.20;99.90;;;;;;4985254;28;20734;-69
2021/12/01 06:04:44;;;;;;;4.57;2.60;;;6.20;99.90;;;;;;4977592;28;20305;-66
2021/12/01 06:07:12;;;;;;;2.40;2.20;;;6.30;99.90;;;;;;4983405;28;20237;-68
2021/12/01 06:09:42;;;;;;;5.35;4.60;;;6.30;99.90;;;;;;4984459;28;20197;-68
2021/12/01 06:12:12;;;;;;;3.55;3.25;;;6.30;99.90;;;;;;4985927;28;20209;-69
2021/12/01 06:14:41;;;;;;;6.75;4.07;;;6.30;99.90;;;;;;4987294;28;20272;-69
2021/12/01 06:17:10;;;;;;;8.35;7.30;;;6.20;99.90;;;;;;4984583;28;20233;-67
2021/12/01 06:19:38;;;;;;;7.68;6.03;;;6.30;99.90;;;;;;4985265;28;20240;-68
2021/12/01 06:22:06;;;;;;;6.05;4.80;;;6.30;99.90;;;;;;4988091;28;20822;-68
2021/12/01 06:24:35;;;;;;;5.25;4.57;;;6.30;99.90;;;;;;4986306;28;20337;-68
2021/12/01 06:27:04;;;;;;;3.80;3.28;;;6.30;99.90;;;;;;4987417;28;20301;-68
2021/12/01 06:29:32;;;;;;;3.83;3.53;;;6.30;99.90;;;;;;4984278;28;20292;-68
2021/12/01 06:32:01;;;;;;;6.80;6.10;;;6.30;99.90;;;;;;4985802;28;20289;-69
2021/12/01 06:34:30;;;;;;;5.30;4.80;;;6.30;99.90;;;;;;4981172;28;20225;-70
2021/12/01 06:36:58;;;;;;;4.75;4.43;;;6.30;99.90;;;;;;4983649;28;20248;-67
2021/12/01 06:39:26;;;;;;;6.00;4.55;;;6.30;99.90;;;;;;4984807;28;20806;-68
2021/12/01 06:41:54;;;;;;;6.90;5.20;;;6.40;99.90;;;;;;4987460;28;20289;-70
2021/12/01 06:44:23;;;;;;;3.90;3.60;;;6.40;99.90;;;;;;4985447;28;20249;-70
2021/12/01 06:46:51;;;;;;;3.30;3.00;;;6.40;99.90;;;;;;4985831;28;20304;-68
2021/12/01 06:49:19;;;;;;;4.07;3.50;;;6.40;99.90;;;;;;4985483;28;20672;-68
2021/12/01 06:51:48;;;;;;;5.75;5.15;;;6.40;99.90;;;;;;4980163;28;20244;-69
2021/12/01 06:54:16;;;;;;;5.28;4.88;;;6.40;99.90;;;;;;4992491;28;20331;-68
2021/12/01 06:56:44;;;;;;;4.85;4.40;;;6.30;99.90;;;;;;4991935;28;20248;-68
2021/12/01 06:59:12;;;;;;;4.95;4.55;;;6.40;99.90;;;;;;4984183;28;20234;-68
2021/12/01 07:01:40;;;;;;;4.32;3.92;;;6.30;99.90;;;;;;4990761;28;20202;-66
2021/12/01 07:04:08;;;;;;;4.60;4.07;;;6.30;99.90;;;;;;4991220;28;20264;-68
2021/12/01 07:06:36;;;;;;;4.00;3.70;;;6.30;99.90;;;;;;4991734;28;20251;-68
2021/12/01 07:09:05;;;;;;;5.35;4.85;;;6.30;99.90;;;;;;4991973;28;20226;-69
2021/12/01 07:11:33;;;;;;;3.70;3.40;;;6.30;99.90;;;;;;4992380;28;20229;-67
2021/12/01 07:14:01;;;;;;;4.00;3.30;;;6.30;99.90;;;;;;4991120;28;20226;-68
2021/12/01 07:16:30;;;;;;;4.43;3.90;;;6.40;99.90;;;;;;4983925;28;20202;-68
2021/12/01 07:18:58;;;;;;;4.30;3.90;;;6.30;99.90;;;;;;4990019;28;20198;-68
2021/12/01 07:21:26;;;;;;;4.90;3.88;;;6.30;99.90;;;;;;4996445;28;20631;-69
2021/12/01 07:23:53;;;;;;;4.50;3.30;;;6.30;99.90;;;;;;4991423;28;20277;-69
2021/12/01 07:26:23;;;;;;;3.72;3.20;;;6.40;99.90;;;;;;4992041;28;20261;-69
2021/12/01 07:28:51;;;;;;;3.80;2.90;;;6.40;99.90;;;;;;4991926;28;20233;-68
2021/12/01 07:31:18;;;;;;;2.22;2.00;;;6.40;99.90;;;;;;4991850;28;20221;-68
2021/12/01 07:33:46;;;;;;;3.45;2.25;;;6.40;99.90;;;;;;4991621;28;20246;-69
2021/12/01 07:36:15;;;;;;;2.80;2.60;;;6.40;99.90;;;;;;4990319;28;20242;-66
2021/12/01 07:38:43;;;;;;;2.70;2.50;;;6.40;99.90;;;;;;4991748;28;20305;-67
2021/12/01 07:41:11;;;;;;;2.88;2.63;;;6.40;99.90;;;;;;4992036;28;20232;-67
2021/12/01 07:43:40;;;;;;;3.45;2.35;;;6.30;99.90;;;;;;4991916;28;20220;-67
2021/12/01 07:46:08;;;;;;;2.50;2.25;;;6.30;99.90;;;;;;4991681;28;20341;-68
2021/12/01 07:48:37;;;;;;;2.10;1.98;;;6.40;99.90;;;;;;4991479;28;20194;-68
2021/12/01 07:51:05;;;;;;;3.20;2.97;;;6.40;99.90;;;;;;4992105;28;20281;-68
2021/12/01 07:53:34;;;;;;;4.72;2.92;;;6.40;99.90;;;;;;4992033;28;20642;-69
2021/12/01 07:56:03;;;;;;;2.42;1.85;;;6.40;99.90;;;;;;4991614;28;20229;-69
2021/12/01 07:58:31;;;;;;;2.90;2.50;;;6.40;99.90;;;;;;4991647;28;20252;-68
2021/12/01 08:01:00;;;;;;;3.15;2.72;;;6.40;99.90;;;;;;4991612;28;20202;-68
2021/12/01 08:03:28;;;;;;;3.88;1.90;;;6.40;99.90;;;;;;4991236;28;20289;-68
2021/12/01 08:05:56;;;;;;;2.55;2.35;;;6.50;99.90;;;;;;4991264;28;20274;-68
2021/12/01 08:08:24;;;;;;;2.70;2.50;;;6.50;99.90;;;;;;4991420;28;20202;-67
2021/12/01 08:10:52;;;;;;;2.58;2.38;;;6.50;99.90;;;;;;4995143;28;20210;-68
2021/12/01 08:13:20;;;;;;;2.33;2.10;;;6.50;99.90;;;;;;4995502;28;20213;-69
2021/12/01 08:15:49;;;;;;;4.55;2.55;;;6.50;99.90;;;;;;4994883;28;20692;-69
2021/12/01 08:18:19;;;;;;;3.67;2.60;;;6.50;99.90;;;;;;4994610;28;20229;-69
2021/12/01 08:20:47;;;;;;;2.40;2.20;;;6.50;99.90;;;;;;4995348;28;20198;-70
2021/12/01 08:23:15;;;;;;;2.58;2.00;;;6.50;99.90;;;;;;4995019;28;20198;-70
2021/12/01 08:25:44;;;;;;;2.50;2.30;;;6.50;99.90;;;;;;4995879;28;20214;-69
2021/12/01 08:28:12;;;;;;;2.85;2.65;;;6.50;99.90;;;;;;4994821;28;20238;-69
2021/12/01 08:30:40;;;;;;;3.05;2.75;;;6.50;99.90;;;;;;4995003;28;20242;-70
2021/12/01 08:33:07;;;;;;;2.70;2.50;;;6.50;99.90;;;;;;4995071;28;20217;-70
2021/12/01 08:35:37;;;;;;;3.60;3.30;;;6.50;99.90;;;;;;4995134;28;20225;-69
2021/12/01 08:38:05;;;;;;;6.68;5.75;;;6.50;99.90;;;;;;4994926;28;20205;-69
2021/12/01 08:40:33;;;;;;;4.72;3.60;;;6.60;99.90;;;;;;4995000;28;20293;-68
2021/12/01 08:43:02;;;;;;;7.18;5.25;;;6.50;99.90;;;;;;4995223;28;20229;-69
2021/12/01 08:45:30;;;;;;;7.65;6.65;;;6.50;99.90;;;;;;4994609;28;20213;-69
2021/12/01 08:47:59;;;;;;;18.88;12.63;;;6.50;99.90;;;;;;4994579;28;20190;-69
2021/12/01 08:50:27;;;;;;;22.42;17.27;;;6.50;99.90;;;;;;4994892;28;20756;-68
2021/12/01 08:52:56;;;;;;;6.25;5.53;;;6.50;99.90;;;;;;4994665;28;20276;-68
2021/12/01 08:55:24;;;;;;;2.83;2.63;;;6.50;99.90;;;;;;4994199;28;20221;-68
2021/12/01 08:58:07;;;;;;;3.83;3.25;;;6.50;99.90;;;;;;4994459;28;20194;-68
2021/12/01 09:00:41;;;;;;;2.72;2.53;;;6.50;99.90;;;;;;4994537;28;20206;-69
2021/12/01 09:03:10;;;;;;;4.80;2.42;;;6.50;99.90;;;;;;4994370;28;20194;-69
2021/12/01 09:05:38;;;;;;;1.55;1.45;;;6.50;99.90;;;;;;4994182;28;20221;-68
2021/12/01 09:08:08;;;;;;;1.70;1.60;;;6.60;99.90;;;;;;4994338;28;20221;-71
2021/12/01 09:10:37;;;;;;;1.77;1.67;;;6.60;99.90;;;;;;4994411;28;20222;-69
2021/12/01 09:13:06;;;;;;;3.17;1.77;;;6.60;99.90;;;;;;4994368;28;20236;-69
2021/12/01 09:15:35;;;;;;;4.43;4.13;;;6.60;99.90;;;;;;4994237;28;20626;-65
2021/12/01 09:18:03;;;;;;;2.25;1.85;;;6.70;99.90;;;;;;4993715;28;20284;-68
2021/12/01 09:20:31;;;;;;;2.05;1.55;;;6.70;99.90;;;;;;4993748;28;20194;-69
2021/12/01 09:23:00;;;;;;;1.20;1.10;;;6.70;99.90;;;;;;4993970;28;20701;-69
2021/12/01 09:25:30;;;;;;;1.65;1.55;;;6.70;99.90;;;;;;4993686;28;20706;-67
2021/12/01 09:28:13;;;;;;;1.73;1.33;;;6.70;99.90;;;;;;4994027;28;20244;-70
2021/12/01 09:30:41;;;;;;;1.80;1.63;;;6.80;99.90;;;;;;4993972;28;20198;-67
2021/12/01 09:33:09;;;;;;;1.67;1.45;;;6.80;99.90;;;;;;4994197;28;20202;-67
2021/12/01 09:35:37;;;;;;;2.58;1.70;;;6.90;99.90;;;;;;4993927;28;20605;-68
2021/12/01 09:38:05;;;;;;;2.55;2.33;;;6.90;99.90;;;;;;4994054;28;20290;-68
2021/12/01 09:40:34;;;;;;;0.90;0.75;;;7.00;99.90;;;;;;4993976;28;20252;-68
2021/12/01 09:43:02;;;;;;;1.38;1.17;;;7.00;99.90;;;;;;4993799;28;20230;-68
2021/12/01 09:45:30;;;;;;;2.20;1.10;;;7.10;99.90;;;;;;4993636;28;20761;-67
2021/12/01 09:47:58;;;;;;;1.25;1.10;;;7.10;99.90;;;;;;4993718;28;20218;-65
2021/12/01 09:50:27;;;;;;;1.42;1.20;;;7.10;99.90;;;;;;4993480;28;20564;-68
2021/12/01 09:52:55;;;;;;;1.95;0.90;;;7.10;99.90;;;;;;4993783;28;20595;-67
2021/12/01 09:55:23;;;;;;;2.22;1.25;;;7.10;99.90;;;;;;4993459;28;20256;-67
2021/12/01 09:58:05;;;;;;;1.20;1.10;;;7.20;99.90;;;;;;4993625;28;20236;-67
2021/12/01 10:00:36;;;;;;;0.90;0.80;;;7.20;99.90;;;;;;4992178;28;20662;-69
2021/12/01 10:03:05;;;;;;;2.42;1.30;;;7.30;99.90;;;;;;4993608;28;20205;-68
2021/12/01 10:05:50;;;;;;;1.10;1.00;;;7.30;99.90;;;;;;4993133;28;20218;-68
2021/12/01 10:08:23;;;;;;;0.70;0.70;;;7.40;99.90;;;;;;4993223;28;20248;-68
2021/12/01 10:10:53;;;;;;;1.00;0.90;;;7.40;99.90;;;;;;4993389;28;20674;-68
2021/12/01 10:13:29;;;;;;;1.10;1.00;;;7.40;99.90;;;;;;4993404;28;20707;-68
2021/12/01 10:15:59;;;;;;;1.02;0.90;;;7.50;99.90;;;;;;4993023;28;20229;-67
2021/12/01 10:18:30;;;;;;;1.70;1.05;;;7.50;99.90;;;;;;4993022;28;20194;-69
2021/12/01 10:21:04;;;;;;;0.90;0.80;;;7.50;99.90;;;;;;4992494;28;20272;-68
2021/12/01 10:23:32;;;;;;;1.95;1.00;;;7.50;99.90;;;;;;4972992;28;20266;-68
2021/12/01 10:26:09;;;;;;;1.15;1.00;;;7.60;99.90;;;;;;4973598;28;20241;-68
2021/12/01 10:28:41;;;;;;;1.25;1.15;;;7.60;99.90;;;;;;4982948;28;20291;-68
2021/12/01 10:31:11;;;;;;;0.95;0.75;;;7.60;99.90;;;;;;4992965;28;20210;-69
2021/12/01 10:33:39;;;;;;;1.30;1.20;;;7.60;99.90;;;;;;4992927;28;20214;-69
2021/12/01 10:36:09;;;;;;;1.65;1.33;;;7.70;99.90;;;;;;4992750;28;20240;-68
2021/12/01 10:38:40;;;;;;;0.70;0.60;;;7.70;99.90;;;;;;4992783;28;20218;-68
2021/12/01 10:41:11;;;;;;;1.20;1.10;;;7.70;99.90;;;;;;4992743;28;20193;-66
2021/12/01 10:43:48;;;;;;;1.10;0.77;;;7.70;99.90;;;;;;4992470;28;20245;-68
2021/12/01 10:46:17;;;;;;;1.25;0.60;;;7.70;99.90;;;;;;4992690;28;20234;-68
2021/12/01 10:49:00;;;;;;;0.95;0.85;;;7.70;99.90;;;;;;4992397;28;20273;-68
2021/12/01 10:51:36;;;;;;;1.10;0.70;;;7.80;99.90;;;;;;4992662;28;20237;-68
2021/12/01 10:54:05;;;;;;;1.67;1.30;;;7.70;99.90;;;;;;4992442;28;20261;-68
2021/12/01 10:56:36;;;;;;;1.38;0.93;;;7.70;99.90;;;;;;4992245;28;20272;-68
2021/12/01 10:59:12;;;;;;;0.60;0.60;;;7.80;99.90;;;;;;4990507;28;20610;-69
2021/12/01 11:01:41;;;;;;;0.80;0.75;;;7.80;99.90;;;;;;5000876;28;20236;-68
2021/12/01 11:04:09;;;;;;;2.80;2.25;;;7.80;99.90;;;;;;5003798;28;20221;-68
2021/12/01 11:06:42;;;;;;;1.77;1.60;;;7.80;99.90;;;;;;5011807;28;20232;-68
2021/12/01 11:09:13;;;;;;;2.22;2.03;;;7.80;99.90;;;;;;5011784;28;20239;-68
2021/12/01 11:11:43;;;;;;;1.10;0.98;;;7.90;99.90;;;;;;5011942;28;20233;-69
2021/12/01 11:14:41;;;;;;;1.08;0.80;;;7.90;99.90;;;;;;5011844;28;20658;-69
2021/12/01 11:17:12;;;;;;;2.30;1.50;;;7.90;99.90;;;;;;5005786;28;20201;-68
2021/12/01 11:19:40;;;;;;;0.90;0.80;;;7.90;99.90;;;;;;4991952;28;20194;-69
2021/12/01 11:22:27;;;;;;;1.73;1.63;;;8.00;99.90;;;;;;4992212;28;20225;-68
2021/12/01 11:25:20;;;;;;;1.60;1.50;;;8.00;99.90;;;;;;4991866;28;20657;-68
2021/12/01 11:27:48;;;;;;;2.60;2.40;;;8.10;99.90;;;;;;4991930;28;20702;-69
2021/12/01 11:30:19;;;;;;;1.30;1.20;;;8.10;99.90;;;;;;4991684;28;20206;-68
2021/12/01 11:33:10;;;;;;;1.50;1.27;;;8.10;99.90;;;;;;4987262;28;20227;-69
2021/12/01 11:35:39;;;;;;;1.52;1.33;;;8.10;99.90;;;;;;4991701;28;20253;-71
2021/12/01 11:38:09;;;;;;;1.00;0.82;;;8.10;99.90;;;;;;4991862;28;20202;-69
2021/12/01 11:40:37;;;;;;;1.30;1.17;;;8.20;99.90;;;;;;4991950;28;20226;-68
2021/12/01 11:43:08;;;;;;;1.50;1.30;;;8.20;99.90;;;;;;4992074;28;20253;-68
2021/12/01 11:45:39;;;;;;;1.40;1.00;;;8.20;99.90;;;;;;4994992;28;20206;-65
2021/12/01 11:48:12;;;;;;;1.75;1.10;;;8.30;99.90;;;;;;4995950;28;20249;-68
2021/12/01 11:50:46;;;;;;;1.00;0.80;;;8.20;99.90;;;;;;4995918;28;20259;-67
2021/12/01 11:53:21;;;;;;;0.80;0.77;;;8.30;99.90;;;;;;4995829;28;20681;-67
2021/12/01 11:55:56;;;;;;;1.30;0.75;;;8.30;99.90;;;;;;4995652;28;20228;-68
2021/12/01 11:58:56;;;;;;;0.70;0.60;;;8.30;99.90;;;;;;4995807;28;20193;-69
2021/12/01 12:01:49;;;;;;;1.10;0.90;;;8.30;99.90;;;;;;4981461;28;20285;-67
2021/12/01 12:04:28;;;;;;;1.95;1.40;;;8.30;99.90;;;;;;4995564;28;20218;-68
2021/12/01 12:07:01;;;;;;;1.30;1.20;;;8.30;99.90;;;;;;4995771;28;20233;-69
2021/12/01 12:10:06;;;;;;;0.93;0.85;;;8.30;99.90;;;;;;4995681;28;20557;-68
2021/12/01 12:13:03;;;;;;;1.00;0.80;;;8.30;99.90;;;;;;4995647;28;20198;-65
2021/12/01 12:15:41;;;;;;;0.98;0.88;;;8.40;99.90;;;;;;4961853;28;20226;-69
2021/12/01 12:18:12;;;;;;;4.00;2.75;;;8.40;99.90;;;;;;4995583;28;20225;-69
2021/12/01 12:20:47;;;;;;;1.52;1.15;;;8.40;99.90;;;;;;4995680;28;20209;-68
2021/12/01 12:23:17;;;;;;;1.00;0.90;;;8.40;99.90;;;;;;4995026;28;20227;-68
2021/12/01 12:25:54;;;;;;;1.40;1.00;;;8.30;99.90;;;;;;4956459;28;20199;-69
2021/12/01 12:28:38;;;;;;;1.00;0.77;;;8.30;99.90;;;;;;4956221;28;20695;-68
2021/12/01 12:31:27;;;;;;;0.60;0.60;;;8.30;99.90;;;;;;4956386;28;20255;-68
2021/12/01 12:33:59;;;;;;;1.92;1.08;;;8.30;99.90;;;;;;4937169;29;20287;-69
2021/12/01 12:36:40;;;;;;;1.02;0.70;;;8.30;99.90;;;;;;4937016;29;20259;-68
2021/12/01 12:39:09;;;;;;;1.17;0.93;;;8.40;99.90;;;;;;4943639;28;20226;-68
2021/12/01 12:42:05;;;;;;;1.88;1.60;;;8.30;99.90;;;;;;4956502;28;20719;-68
2021/12/01 12:44:38;;;;;;;0.70;0.70;;;8.30;99.90;;;;;;4956475;28;20282;-67
2021/12/01 12:47:30;;;;;;;0.70;0.60;;;8.30;99.90;;;;;;4956080;28;20207;-69
2021/12/01 12:50:11;;;;;;;0.60;0.50;;;8.30;99.90;;;;;;4955976;28;20219;-68
2021/12/01 12:52:40;;;;;;;0.63;0.50;;;8.30;99.90;;;;;;4956298;28;20623;-68
2021/12/01 12:55:11;;;;;;;1.13;0.50;;;8.30;99.90;;;;;;4955999;28;20294;-68
2021/12/01 12:57:58;;;;;;;0.68;0.57;;;8.30;99.90;;;;;;4955569;29;20238;-70
2021/12/01 13:00:29;;;;;;;0.60;0.57;;;8.30;99.90;;;;;;4955662;28;20234;-66
2021/12/01 13:02:59;;;;;;;0.70;0.68;;;8.30;99.90;;;;;;4955867;28;20210;-68
2021/12/01 13:05:38;;;;;;;0.80;0.80;;;8.30;99.90;;;;;;4955888;28;20219;-69
2021/12/01 13:08:27;;;;;;;2.45;0.65;;;8.30;99.90;;;;;;4955256;29;20238;-69
2021/12/01 13:11:00;;;;;;;0.75;0.60;;;8.30;99.90;;;;;;4955829;28;20199;-69
2021/12/01 13:13:29;;;;;;;1.67;0.60;;;8.30;99.90;;;;;;4954329;28;20622;-70
2021/12/01 13:15:58;;;;;;;0.70;0.60;;;8.30;99.90;;;;;;4955817;28;20195;-70
2021/12/01 13:18:28;;;;;;;1.27;0.80;;;8.30;99.90;;;;;;4955407;28;20283;-70
2021/12/01 13:21:00;;;;;;;1.15;0.70;;;8.40;99.90;;;;;;4955729;28;20278;-70